Dodge, North Dakota
Current Conditions -  °F | °C
As of 6:35 AM on Thursday 30 Oct 2014 (Local Time) from KHZE Reporting Station
Overcast Overcast  
Wind Chill: 25°   Ceiling: 600
Heat Index: 32°   Visibility: 10mi
Dew Point: 30°   Wind: 8mph
Humidity: 93%   Direction: 20°NNE
Pressure: 30.25"   Gusts: NA
Location:  47.31°N, 102.2°W
Report Text: KHZE 301235Z AUTO 02007KT 10SM OVC006 00/M01 A3025 RMK AO2
Loading
Personal Weather Stations






























Interactive Weather Map New forecast layout! Learn more

10-Day Weather Forecast

Advertisements
Track Severe Weather on mobile